Time;durP1;ratioP1;P1;durP2;ratioP2;P2;SDS_P1;SDS_P2;PMS_P1;PMS_P2;Temp;Humidity;BMP_temperature;BMP_pressure;BME280_temperature;BME280_humidity;BME280_pressure;Samples;Min_cycle;Max_cycle;Signal;HPM_P1;HPM_P2
2024/03/05 00:01:02;;;;;;;105.00;43.10;;;10.00;99.90;;;;;;5017471;28;20040;-69
2024/03/05 00:03:28;;;;;;;104.70;42.70;;;10.00;99.90;;;;;;5014876;28;20638;-68
2024/03/05 00:05:56;;;;;;;101.97;41.08;;;10.00;99.90;;;;;;5012212;28;20053;-69
2024/03/05 00:08:22;;;;;;;109.80;43.55;;;10.00;99.90;;;;;;5021613;28;20035;-69
2024/03/05 00:10:48;;;;;;;115.93;43.00;;;9.90;99.90;;;;;;5017816;28;20025;-69
2024/03/05 00:13:13;;;;;;;120.97;45.78;;;9.90;99.90;;;;;;5020076;28;20132;-69
2024/03/05 00:15:42;;;;;;;113.05;43.22;;;9.90;99.90;;;;;;5020244;28;20405;-69
2024/03/05 00:18:07;;;;;;;117.80;43.85;;;9.90;99.90;;;;;;5020674;28;20445;-69
2024/03/05 00:20:33;;;;;;;116.90;46.17;;;9.90;99.90;;;;;;5012658;28;20048;-69
2024/03/05 00:22:58;;;;;;;121.40;45.70;;;9.90;99.90;;;;;;5022697;28;20461;-69
2024/03/05 00:25:24;;;;;;;120.88;44.65;;;9.90;99.90;;;;;;5015464;28;20038;-69
2024/03/05 00:27:50;;;;;;;110.95;44.65;;;9.90;99.90;;;;;;5020435;28;20034;-69
2024/03/05 00:30:18;;;;;;;119.82;47.00;;;9.90;99.90;;;;;;5020612;28;20108;-69
2024/03/05 00:32:47;;;;;;;124.10;46.92;;;9.90;99.90;;;;;;5010333;28;20037;-70
2024/03/05 00:35:15;;;;;;;120.15;45.55;;;9.90;99.90;;;;;;5017195;28;20036;-69
2024/03/05 00:37:41;;;;;;;115.95;46.42;;;10.00;99.90;;;;;;5013964;28;20069;-69
2024/03/05 00:40:11;;;;;;;109.40;44.25;;;10.00;99.90;;;;;;5014859;28;20053;-69
2024/03/05 00:42:37;;;;;;;122.68;45.40;;;9.90;99.90;;;;;;5018411;28;20037;-69
2024/03/05 00:45:06;;;;;;;120.15;44.67;;;10.00;99.90;;;;;;5019598;28;20026;-69
2024/03/05 00:47:33;;;;;;;123.70;44.95;;;10.00;99.90;;;;;;5019422;28;20110;-69
2024/03/05 00:49:59;;;;;;;120.45;46.30;;;10.00;99.90;;;;;;5014105;28;20038;-69
2024/03/05 00:52:25;;;;;;;122.10;45.85;;;10.00;99.90;;;;;;5015092;28;20128;-69
2024/03/05 00:54:51;;;;;;;127.18;47.17;;;10.00;99.90;;;;;;5015343;28;20121;-69
2024/03/05 00:57:16;;;;;;;119.88;45.75;;;10.00;99.90;;;;;;5022770;28;20044;-69
2024/03/05 00:59:43;;;;;;;129.48;46.75;;;10.00;99.90;;;;;;5018240;28;20042;-69
2024/03/05 01:02:08;;;;;;;125.85;49.47;;;10.00;99.90;;;;;;5019923;28;20042;-69
2024/03/05 01:04:34;;;;;;;121.35;45.22;;;10.00;99.90;;;;;;5024463;28;20562;-69
2024/03/05 01:07:00;;;;;;;136.02;49.03;;;10.00;99.90;;;;;;5017697;28;20034;-69
2024/03/05 01:09:27;;;;;;;139.15;49.63;;;10.00;99.90;;;;;;5022327;28;20033;-69
2024/03/05 01:11:53;;;;;;;132.57;50.83;;;10.00;99.90;;;;;;5020432;28;20029;-69
2024/03/05 01:14:19;;;;;;;125.78;47.40;;;10.00;99.90;;;;;;5018052;28;20042;-69
2024/03/05 01:16:45;;;;;;;134.32;48.00;;;10.00;99.90;;;;;;5021141;28;20057;-69
2024/03/05 01:19:14;;;;;;;121.15;46.22;;;10.00;99.90;;;;;;5017081;28;20042;-69
2024/03/05 01:21:43;;;;;;;127.75;47.17;;;10.00;99.90;;;;;;5013883;28;20030;-69
2024/03/05 01:24:11;;;;;;;120.93;45.92;;;10.00;99.90;;;;;;5014971;28;20026;-69
2024/03/05 01:26:38;;;;;;;131.70;47.33;;;10.00;99.90;;;;;;5015976;28;20040;-69
2024/03/05 01:29:05;;;;;;;129.93;48.50;;;10.00;99.90;;;;;;5017334;28;20029;-69
2024/03/05 01:31:33;;;;;;;123.90;45.75;;;9.90;99.90;;;;;;5013143;28;20042;-69
2024/03/05 01:34:00;;;;;;;127.55;47.03;;;10.00;99.90;;;;;;5019041;28;20230;-69
2024/03/05 01:36:26;;;;;;;134.05;46.17;;;9.90;99.90;;;;;;5017261;28;20375;-69
2024/03/05 01:38:52;;;;;;;123.75;46.65;;;9.90;99.90;;;;;;5014011;28;20088;-70
2024/03/05 01:41:18;;;;;;;136.68;49.08;;;9.90;99.90;;;;;;5012687;28;20032;-69
2024/03/05 01:43:44;;;;;;;136.57;49.75;;;9.90;99.90;;;;;;5021586;28;20645;-69
2024/03/05 01:46:13;;;;;;;132.52;46.60;;;9.90;99.90;;;;;;5017625;28;21266;-69
2024/03/05 01:48:40;;;;;;;128.57;46.55;;;9.90;99.90;;;;;;5021383;28;20025;-69
2024/03/05 01:51:06;;;;;;;144.20;49.50;;;9.90;99.90;;;;;;5017691;28;20029;-69
2024/03/05 01:53:32;;;;;;;132.98;48.40;;;9.90;99.90;;;;;;5015906;28;20034;-69
2024/03/05 01:55:58;;;;;;;120.60;46.47;;;9.90;99.90;;;;;;5016614;28;20100;-69
2024/03/05 01:58:25;;;;;;;132.73;47.65;;;9.90;99.90;;;;;;5024171;28;20041;-69
2024/03/05 02:00:52;;;;;;;124.35;47.28;;;9.90;99.90;;;;;;5021668;28;20478;-69
2024/03/05 02:03:18;;;;;;;125.40;47.65;;;9.90;99.90;;;;;;5021687;28;20021;-69
2024/03/05 02:05:46;;;;;;;120.85;45.33;;;9.90;99.90;;;;;;5018637;28;20410;-69
2024/03/05 02:08:12;;;;;;;129.38;47.90;;;9.90;99.90;;;;;;5016868;28;20525;-69
2024/03/05 02:10:38;;;;;;;123.85;46.85;;;9.90;99.90;;;;;;5020523;28;20514;-69
2024/03/05 02:13:05;;;;;;;127.80;46.03;;;9.90;99.90;;;;;;5018316;28;20041;-69
2024/03/05 02:15:31;;;;;;;120.32;45.88;;;9.90;99.90;;;;;;5019529;28;20308;-70
2024/03/05 02:17:56;;;;;;;123.28;46.08;;;9.90;99.90;;;;;;5023508;28;20067;-69
2024/03/05 02:20:22;;;;;;;123.13;45.55;;;9.90;99.90;;;;;;5020664;28;20121;-69
2024/03/05 02:22:48;;;;;;;123.95;47.97;;;9.90;99.90;;;;;;5020677;28;20129;-69
2024/03/05 02:25:15;;;;;;;122.70;45.97;;;9.90;99.90;;;;;;5023107;28;20061;-69
2024/03/05 02:27:43;;;;;;;119.63;46.28;;;9.90;99.90;;;;;;5018558;28;20033;-69
2024/03/05 02:30:10;;;;;;;118.80;44.72;;;9.80;99.90;;;;;;5019012;28;20104;-71
2024/03/05 02:32:40;;;;;;;109.88;44.35;;;9.80;99.90;;;;;;5022507;28;20030;-69
2024/03/05 02:35:10;;;;;;;96.20;39.97;;;9.80;99.90;;;;;;5016925;28;20092;-69
2024/03/05 02:37:40;;;;;;;91.72;40.25;;;9.80;99.90;;;;;;5018335;28;20073;-69
2024/03/05 02:40:13;;;;;;;83.55;39.55;;;9.80;99.90;;;;;;5019986;28;20038;-68
2024/03/05 02:42:42;;;;;;;99.40;41.13;;;9.80;99.90;;;;;;5017015;28;20084;-69
2024/03/05 02:45:10;;;;;;;92.78;38.13;;;9.80;99.90;;;;;;5016927;28;20040;-69
2024/03/05 02:47:39;;;;;;;91.00;39.42;;;9.80;99.90;;;;;;5023511;28;20096;-69
2024/03/05 02:50:07;;;;;;;81.90;36.95;;;9.70;99.90;;;;;;5015029;28;20037;-69
2024/03/05 02:52:33;;;;;;;;;;;9.70;99.90;;;;;;5021584;28;20442;-69
2024/03/05 02:54:59;;;;;;;79.95;35.55;;;9.70;99.90;;;;;;5020863;28;20366;-69
2024/03/05 02:57:24;;;;;;;83.20;36.78;;;9.70;99.90;;;;;;5020254;28;20053;-69
2024/03/05 02:59:53;;;;;;;86.88;36.75;;;9.70;99.90;;;;;;5017275;28;20030;-69
2024/03/05 03:02:20;;;;;;;88.88;35.45;;;9.70;99.90;;;;;;5015177;28;20518;-69
2024/03/05 03:04:47;;;;;;;76.00;34.67;;;9.60;99.90;;;;;;5015520;28;20060;-69
2024/03/05 03:07:12;;;;;;;78.28;35.10;;;9.70;99.90;;;;;;5016765;28;21607;-69
2024/03/05 03:09:38;;;;;;;69.63;33.95;;;9.60;99.90;;;;;;4996920;28;20034;-69
2024/03/05 03:12:05;;;;;;;73.60;34.30;;;9.60;99.90;;;;;;4997499;28;20394;-69
2024/03/05 03:14:30;;;;;;;70.00;33.35;;;9.60;99.90;;;;;;5000785;28;20096;-68
2024/03/05 03:16:56;;;;;;;67.57;31.33;;;9.50;99.90;;;;;;4995973;28;20034;-69
2024/03/05 03:19:22;;;;;;;73.43;32.80;;;9.50;99.90;;;;;;4993382;28;20032;-69
2024/03/05 03:21:49;;;;;;;72.53;32.05;;;9.60;99.90;;;;;;4997473;28;20030;-69
2024/03/05 03:24:14;;;;;;;77.05;32.47;;;9.50;99.90;;;;;;4995839;28;20068;-69
2024/03/05 03:26:40;;;;;;;68.60;33.17;;;9.50;99.90;;;;;;5000094;28;20042;-69
2024/03/05 03:29:11;;;;;;;63.67;31.25;;;9.50;99.90;;;;;;4999753;28;20257;-69
2024/03/05 03:31:46;;;;;;;76.32;30.70;;;9.50;99.90;;;;;;5000132;28;20334;-69
2024/03/05 03:34:12;;;;;;;71.28;30.85;;;9.40;99.90;;;;;;4994977;28;20041;-69
2024/03/05 03:36:38;;;;;;;69.88;31.30;;;9.40;99.90;;;;;;5001285;28;20026;-69
2024/03/05 03:39:03;;;;;;;66.55;30.98;;;9.40;99.90;;;;;;4998020;28;20032;-69
2024/03/05 03:41:29;;;;;;;72.53;30.05;;;9.40;99.90;;;;;;5002068;28;20030;-69
2024/03/05 03:43:55;;;;;;;69.32;30.08;;;9.30;99.90;;;;;;4991720;28;20034;-69
2024/03/05 03:46:21;;;;;;;64.00;29.17;;;9.30;99.90;;;;;;4994647;28;20028;-69
2024/03/05 03:48:46;;;;;;;55.60;28.65;;;9.20;99.90;;;;;;4996553;28;20117;-69
2024/03/05 03:51:15;;;;;;;67.78;28.45;;;9.20;99.90;;;;;;4997080;28;20033;-69
2024/03/05 03:53:43;;;;;;;61.70;27.80;;;9.20;99.90;;;;;;5001117;28;20478;-69
2024/03/05 03:56:09;;;;;;;57.80;27.60;;;9.20;99.90;;;;;;4995251;28;20511;-69
2024/03/05 03:58:36;;;;;;;63.30;27.50;;;9.20;99.90;;;;;;4997860;28;20034;-69
2024/03/05 04:01:02;;;;;;;58.72;27.13;;;9.20;99.90;;;;;;5000459;28;20034;-69
2024/03/05 04:03:29;;;;;;;56.55;27.67;;;9.10;99.90;;;;;;5000311;28;20066;-69
2024/03/05 04:05:55;;;;;;;60.50;28.10;;;9.10;99.90;;;;;;4996086;28;20030;-69
2024/03/05 04:08:21;;;;;;;60.72;27.90;;;9.10;99.90;;;;;;4997738;28;20141;-69
2024/03/05 04:10:47;;;;;;;61.60;27.25;;;9.10;99.90;;;;;;5003993;28;20558;-69
2024/03/05 04:13:13;;;;;;;57.15;27.13;;;9.00;99.90;;;;;;5004788;28;20065;-69
2024/03/05 04:15:39;;;;;;;55.80;27.52;;;9.00;99.90;;;;;;4994670;28;20070;-69
2024/03/05 04:18:04;;;;;;;52.17;25.88;;;9.00;99.90;;;;;;5003310;28;20441;-69
2024/03/05 04:20:30;;;;;;;51.22;27.23;;;9.00;99.90;;;;;;4999401;28;20499;-69
2024/03/05 04:22:56;;;;;;;58.13;26.20;;;9.10;99.90;;;;;;4997702;28;20041;-69
2024/03/05 04:25:25;;;;;;;58.55;25.92;;;9.00;99.90;;;;;;4999243;28;20034;-69
2024/03/05 04:27:50;;;;;;;60.60;25.92;;;9.00;99.90;;;;;;4999988;28;20037;-69
2024/03/05 04:30:16;;;;;;;56.20;26.58;;;8.90;99.90;;;;;;5002727;28;20026;-69
2024/03/05 04:32:46;;;;;;;53.58;23.80;;;8.90;99.90;;;;;;5001763;28;20029;-69
2024/03/05 04:35:16;;;;;;;56.90;23.70;;;8.90;99.90;;;;;;5003053;28;20068;-69
2024/03/05 04:37:42;;;;;;;48.80;24.17;;;8.90;99.90;;;;;;4995791;28;20065;-69
2024/03/05 04:40:12;;;;;;;49.15;23.88;;;8.90;99.90;;;;;;5004705;28;20117;-69
2024/03/05 04:42:39;;;;;;;52.17;24.42;;;8.80;99.90;;;;;;5014364;28;20030;-69
2024/03/05 04:45:07;;;;;;;56.45;25.25;;;8.80;99.90;;;;;;5024102;28;20302;-69
2024/03/05 04:47:33;;;;;;;52.17;24.25;;;8.80;99.90;;;;;;5019184;28;20091;-69
2024/03/05 04:49:58;;;;;;;50.63;24.08;;;8.80;99.90;;;;;;5016686;28;20042;-69
2024/03/05 04:52:24;;;;;;;48.45;22.45;;;8.70;99.90;;;;;;5014953;28;20108;-69
2024/03/05 04:54:49;;;;;;;45.90;22.00;;;8.60;99.90;;;;;;5014159;28;20046;-69
2024/03/05 04:57:15;;;;;;;45.55;22.05;;;8.70;99.90;;;;;;5018803;28;20054;-69
2024/03/05 04:59:41;;;;;;;53.25;21.52;;;8.60;99.90;;;;;;5014211;28;20481;-69
2024/03/05 05:02:07;;;;;;;44.88;22.13;;;8.50;99.90;;;;;;5012197;28;20072;-68
2024/03/05 05:04:37;;;;;;;46.55;21.77;;;8.50;99.90;;;;;;5019380;28;20041;-69
2024/03/05 05:07:07;;;;;;;45.95;21.30;;;8.50;99.90;;;;;;5017225;28;20173;-69
2024/03/05 05:09:34;;;;;;;40.15;20.98;;;8.50;99.90;;;;;;5017897;28;20083;-69
2024/03/05 05:11:59;;;;;;;40.30;21.33;;;8.50;99.90;;;;;;5012071;28;20029;-69
2024/03/05 05:14:26;;;;;;;46.20;20.27;;;8.50;99.90;;;;;;5015593;28;20042;-69
2024/03/05 05:16:52;;;;;;;42.20;20.25;;;8.40;99.90;;;;;;5010713;28;20034;-69
2024/03/05 05:19:17;;;;;;;38.03;20.33;;;8.40;99.90;;;;;;5014852;28;20029;-69
2024/03/05 05:21:47;;;;;;;39.75;19.48;;;8.40;99.90;;;;;;5019717;28;20037;-69
2024/03/05 05:24:12;;;;;;;39.97;19.70;;;8.30;99.90;;;;;;5020502;28;20017;-69
2024/03/05 05:26:39;;;;;;;43.42;21.08;;;8.30;99.90;;;;;;5013339;28;20040;-69
2024/03/05 05:29:05;;;;;;;39.33;20.65;;;8.20;99.90;;;;;;5022977;28;20029;-69
2024/03/05 05:31:31;;;;;;;39.00;19.00;;;8.20;99.90;;;;;;5013909;28;20026;-69
2024/03/05 05:33:57;;;;;;;37.75;19.17;;;8.20;99.90;;;;;;5015516;28;20033;-69
2024/03/05 05:36:23;;;;;;;45.13;20.33;;;8.20;99.90;;;;;;5022452;28;20131;-69
2024/03/05 05:38:50;;;;;;;41.72;20.10;;;8.20;99.90;;;;;;5023136;28;20120;-69
2024/03/05 05:41:18;;;;;;;44.00;20.15;;;8.20;99.90;;;;;;5025108;28;20030;-69
2024/03/05 05:43:44;;;;;;;41.72;19.05;;;8.20;99.90;;;;;;5018647;28;20577;-69
2024/03/05 05:46:14;;;;;;;43.45;19.42;;;8.20;99.90;;;;;;5022865;28;20095;-69
2024/03/05 05:48:43;;;;;;;41.33;19.48;;;8.10;99.90;;;;;;5022329;28;20038;-69
2024/03/05 05:51:12;;;;;;;39.78;20.08;;;8.10;99.90;;;;;;5021331;28;20033;-69
2024/03/05 05:53:38;;;;;;;38.03;19.25;;;8.10;99.90;;;;;;5023929;28;20042;-69
2024/03/05 05:56:05;;;;;;;42.80;19.65;;;8.10;99.90;;;;;;5021870;28;20108;-69
2024/03/05 05:58:33;;;;;;;40.35;19.48;;;8.10;99.90;;;;;;5025747;28;20040;-69
2024/03/05 06:00:59;;;;;;;44.92;19.52;;;8.10;99.90;;;;;;5019147;28;20041;-69
2024/03/05 06:03:25;;;;;;;35.15;18.38;;;8.10;99.90;;;;;;5020472;28;20021;-69
2024/03/05 06:05:50;;;;;;;38.58;19.02;;;8.10;99.90;;;;;;5015775;28;20030;-69
2024/03/05 06:08:16;;;;;;;40.60;19.27;;;8.10;99.90;;;;;;5021552;28;20383;-69
2024/03/05 06:10:42;;;;;;;40.33;20.50;;;8.00;99.90;;;;;;5017113;28;20033;-69
2024/03/05 06:13:09;;;;;;;42.88;19.73;;;8.00;99.90;;;;;;5018187;28;20125;-69
2024/03/05 06:15:38;;;;;;;45.08;22.27;;;8.00;99.90;;;;;;5020702;28;20041;-69
2024/03/05 06:18:05;;;;;;;47.55;19.88;;;8.00;99.90;;;;;;5016248;28;20026;-69
2024/03/05 06:20:32;;;;;;;37.50;19.77;;;8.00;99.90;;;;;;5018186;28;20046;-69
2024/03/05 06:22:59;;;;;;;43.10;21.52;;;8.00;99.90;;;;;;5015705;28;20494;-69
2024/03/05 06:25:26;;;;;;;50.03;23.05;;;8.00;99.90;;;;;;5016304;28;20097;-69
2024/03/05 06:27:52;;;;;;;41.50;20.25;;;8.00;99.90;;;;;;5017306;28;20132;-69
2024/03/05 06:30:18;;;;;;;50.72;23.20;;;8.00;99.90;;;;;;5010889;28;20030;-69
2024/03/05 06:32:48;;;;;;;44.92;23.10;;;8.00;99.90;;;;;;5019219;28;20034;-69
2024/03/05 06:35:18;;;;;;;47.65;21.67;;;8.00;99.90;;;;;;5016745;28;20066;-69
2024/03/05 06:37:48;;;;;;;49.50;21.67;;;8.00;99.90;;;;;;5022808;28;20037;-69
2024/03/05 06:40:19;;;;;;;47.53;22.58;;;7.90;99.90;;;;;;5014590;28;20025;-69
2024/03/05 06:42:51;;;;;;;41.85;21.38;;;8.00;99.90;;;;;;5015761;28;20806;-69
2024/03/05 06:45:24;;;;;;;47.72;20.58;;;8.00;99.90;;;;;;5011094;28;20088;-69
2024/03/05 06:47:57;;;;;;;43.75;21.83;;;7.90;99.90;;;;;;5013768;28;20454;-68
2024/03/05 06:50:39;;;;;;;45.97;21.75;;;8.00;99.90;;;;;;5020415;28;20030;-69
2024/03/05 06:58:39;;;;;;;45.08;22.50;;;7.90;99.90;;;;;;5021396;28;20123;-68
2024/03/05 07:01:08;;;;;;;52.55;22.75;;;7.90;99.90;;;;;;5016882;28;20034;-69
2024/03/05 07:03:34;;;;;;;45.97;21.77;;;7.80;99.90;;;;;;5018510;28;20074;-69
2024/03/05 07:06:06;;;;;;;51.50;24.20;;;7.80;99.90;;;;;;5012689;28;20021;-68
2024/03/05 07:08:38;;;;;;;50.33;23.05;;;7.80;99.90;;;;;;5010957;28;20030;-68
2024/03/05 07:11:05;;;;;;;56.08;21.98;;;7.80;99.90;;;;;;5015899;28;20120;-68
2024/03/05 07:13:32;;;;;;;51.00;23.05;;;7.80;99.90;;;;;;5019670;28;20025;-68
2024/03/05 07:15:57;;;;;;;50.33;22.40;;;7.70;99.90;;;;;;5017196;28;20095;-68
2024/03/05 07:18:23;;;;;;;47.08;21.50;;;7.80;99.90;;;;;;5021635;28;20124;-68
2024/03/05 07:20:48;;;;;;;52.10;22.55;;;7.80;99.90;;;;;;5020135;28;20037;-68
2024/03/05 07:23:14;;;;;;;49.08;22.98;;;7.80;99.90;;;;;;5021117;28;20042;-69
2024/03/05 07:25:39;;;;;;;46.22;22.48;;;7.70;99.90;;;;;;5014601;28;20037;-69
2024/03/05 07:28:05;;;;;;;43.10;21.80;;;7.70;99.90;;;;;;5024444;28;20072;-69
2024/03/05 07:30:33;;;;;;;49.20;21.30;;;7.70;99.90;;;;;;5018619;28;20038;-68
2024/03/05 07:32:59;;;;;;;53.22;22.65;;;7.70;99.90;;;;;;5017116;28;20026;-68
2024/03/05 07:35:25;;;;;;;53.13;21.75;;;7.70;99.90;;;;;;5020538;28;20609;-68
2024/03/05 07:37:51;;;;;;;51.22;22.45;;;7.70;99.90;;;;;;5020224;28;20188;-68
2024/03/05 07:40:17;;;;;;;46.75;22.10;;;7.70;99.90;;;;;;5023412;28;20060;-68
2024/03/05 07:42:48;;;;;;;47.03;22.30;;;7.80;99.90;;;;;;5022066;28;20073;-68
2024/03/05 07:45:15;;;;;;;49.67;21.83;;;7.70;99.90;;;;;;5020790;28;20041;-68
2024/03/05 07:47:42;;;;;;;48.90;22.20;;;7.70;99.90;;;;;;5019281;28;20033;-68
2024/03/05 07:50:12;;;;;;;47.53;20.83;;;7.70;99.90;;;;;;5014311;28;20581;-69
2024/03/05 07:52:42;;;;;;;48.95;23.30;;;7.70;99.90;;;;;;5015412;28;20132;-68
2024/03/05 07:55:09;;;;;;;48.63;22.05;;;7.70;99.90;;;;;;5023192;28;20529;-68
2024/03/05 07:57:38;;;;;;;46.78;21.80;;;7.70;99.90;;;;;;5016706;28;20037;-69
2024/03/05 08:00:08;;;;;;;44.17;23.70;;;7.70;99.90;;;;;;5014651;28;20038;-68
2024/03/05 08:02:37;;;;;;;46.38;22.50;;;7.70;99.90;;;;;;5020922;28;20414;-68
2024/03/05 08:05:04;;;;;;;52.42;23.40;;;7.70;99.90;;;;;;5017262;28;20046;-68
2024/03/05 08:07:33;;;;;;;50.50;23.60;;;7.60;99.90;;;;;;5020278;28;20033;-68
2024/03/05 08:09:59;;;;;;;49.60;23.08;;;7.60;99.90;;;;;;5019919;28;20823;-68
2024/03/05 08:12:25;;;;;;;51.58;23.67;;;7.60;99.90;;;;;;5014712;28;20032;-68
2024/03/05 08:14:51;;;;;;;52.88;23.65;;;7.60;99.90;;;;;;5011406;28;20080;-68
2024/03/05 08:17:16;;;;;;;44.30;23.42;;;7.60;99.90;;;;;;5013648;28;20054;-68
2024/03/05 08:19:42;;;;;;;43.72;22.00;;;7.60;99.90;;;;;;5021765;28;20041;-68
2024/03/05 08:22:07;;;;;;;47.55;22.67;;;7.60;99.90;;;;;;5020091;28;20156;-68
2024/03/05 08:24:34;;;;;;;54.03;23.67;;;7.70;99.90;;;;;;5020831;28;20419;-68
2024/03/05 08:27:00;;;;;;;44.38;22.20;;;7.60;99.90;;;;;;5017464;28;20034;-68
2024/03/05 08:29:26;;;;;;;46.00;22.98;;;7.70;99.90;;;;;;5020855;28;20227;-68
2024/03/05 08:31:52;;;;;;;48.70;22.63;;;7.60;99.90;;;;;;5017143;28;20093;-68
2024/03/05 08:34:17;;;;;;;49.90;22.67;;;7.60;99.90;;;;;;5016286;28;20050;-67
2024/03/05 08:36:45;;;;;;;46.88;22.58;;;7.60;99.90;;;;;;5013769;28;20509;-68
2024/03/05 08:39:17;;;;;;;50.60;24.15;;;7.60;99.90;;;;;;5015098;28;20064;-68
2024/03/05 08:41:44;;;;;;;45.60;23.20;;;7.60;99.90;;;;;;5024695;28;20048;-68
2024/03/05 08:44:10;;;;;;;46.17;23.63;;;7.60;99.90;;;;;;5022808;28;20085;-68
2024/03/05 08:46:36;;;;;;;48.03;23.33;;;7.60;99.90;;;;;;5012368;28;20346;-68
2024/03/05 08:49:01;;;;;;;46.95;23.08;;;7.50;99.90;;;;;;5018332;28;20033;-68
2024/03/05 08:51:27;;;;;;;45.97;24.33;;;7.60;99.90;;;;;;5019943;28;20084;-68
2024/03/05 08:53:55;;;;;;;49.85;24.23;;;7.60;99.90;;;;;;5013879;28;20561;-68
2024/03/05 08:56:20;;;;;;;51.45;23.73;;;7.70;99.90;;;;;;5023599;28;20041;-68
2024/03/05 08:58:46;;;;;;;47.70;23.63;;;7.60;99.90;;;;;;5018265;28;20033;-68
2024/03/05 09:01:12;;;;;;;48.60;25.05;;;7.60;99.90;;;;;;5018798;28;20044;-67
2024/03/05 09:03:38;;;;;;;46.05;23.73;;;7.60;99.90;;;;;;5012885;28;20502;-68
2024/03/05 09:06:05;;;;;;;50.22;22.95;;;7.60;99.90;;;;;;5017580;28;20029;-68
2024/03/05 09:08:32;;;;;;;46.83;23.30;;;7.60;99.90;;;;;;5020374;28;20030;-68
2024/03/05 09:10:58;;;;;;;51.92;23.25;;;7.60;99.90;;;;;;5017854;28;20029;-69
2024/03/05 09:13:23;;;;;;;52.97;23.75;;;7.60;99.90;;;;;;5018406;28;20044;-69
2024/03/05 09:15:49;;;;;;;47.17;22.25;;;7.60;99.90;;;;;;5020364;28;20529;-68
2024/03/05 09:18:16;;;;;;;45.55;23.25;;;7.60;99.90;;;;;;5017751;28;20040;-70
2024/03/05 09:20:42;;;;;;;46.35;22.67;;;7.60;99.90;;;;;;5020819;28;20133;-67
2024/03/05 09:23:08;;;;;;;47.10;23.17;;;7.60;99.90;;;;;;5015994;28;20124;-67
2024/03/05 09:25:36;;;;;;;50.25;22.27;;;7.60;99.90;;;;;;5017700;28;20068;-69
2024/03/05 09:28:01;;;;;;;50.35;23.25;;;7.60;99.90;;;;;;5015945;28;20042;-68
2024/03/05 09:30:28;;;;;;;44.90;23.33;;;7.50;99.90;;;;;;5013859;28;20540;-69
2024/03/05 09:32:53;;;;;;;51.10;23.27;;;7.60;99.90;;;;;;5018977;28;20079;-68
2024/03/05 09:35:19;;;;;;;50.95;22.05;;;7.50;99.90;;;;;;5019410;28;20042;-68
2024/03/05 09:37:45;;;;;;;44.33;20.42;;;7.60;99.90;;;;;;5018153;28;20038;-68
2024/03/05 09:40:16;;;;;;;44.80;22.40;;;7.60;99.90;;;;;;5019040;28;20097;-69
2024/03/05 09:42:43;;;;;;;47.50;22.38;;;7.50;99.90;;;;;;5020628;28;20033;-69
2024/03/05 09:45:14;;;;;;;46.83;22.63;;;7.60;99.90;;;;;;5016139;28;20042;-69
2024/03/05 09:47:42;;;;;;;51.92;21.50;;;7.60;99.90;;;;;;5011066;28;20116;-69
2024/03/05 09:50:11;;;;;;;42.97;22.02;;;7.60;99.90;;;;;;5010776;28;20030;-69
2024/03/05 09:52:38;;;;;;;38.22;20.95;;;7.50;99.90;;;;;;5017262;28;20616;-68
2024/03/05 09:55:04;;;;;;;43.97;20.88;;;7.60;99.90;;;;;;5017529;28;20038;-69
2024/03/05 09:57:34;;;;;;;50.67;22.55;;;7.60;99.90;;;;;;5020657;28;20029;-69
2024/03/05 09:59:59;;;;;;;45.28;21.08;;;7.60;99.90;;;;;;5017948;28;20057;-69
2024/03/05 10:02:26;;;;;;;43.28;21.17;;;7.50;99.90;;;;;;5015434;28;20057;-69
2024/03/05 10:04:54;;;;;;;44.63;22.52;;;7.50;99.90;;;;;;5010488;28;20034;-68
2024/03/05 10:07:23;;;;;;;;;;;7.50;99.90;;;;;;5018617;28;20133;-69
2024/03/05 10:10:01;;;;;;;43.45;20.42;;;7.50;99.90;;;;;;5012654;28;20004;-68
2024/03/05 10:12:27;;;;;;;48.63;21.65;;;7.50;99.90;;;;;;5017499;28;20030;-69
2024/03/05 10:14:53;;;;;;;44.00;20.77;;;7.40;99.90;;;;;;5015410;28;20051;-69
2024/03/05 10:17:18;;;;;;;44.28;21.77;;;7.50;99.90;;;;;;5023463;28;20030;-68
2024/03/05 10:19:44;;;;;;;44.40;22.10;;;7.50;99.90;;;;;;5022891;28;20048;-68
2024/03/05 10:22:14;;;;;;;47.75;22.02;;;7.50;99.90;;;;;;5018474;28;20034;-68
2024/03/05 10:24:39;;;;;;;44.50;21.70;;;7.50;99.90;;;;;;5015649;28;20039;-69
2024/03/05 10:27:05;;;;;;;42.47;20.27;;;7.50;99.90;;;;;;5022441;28;20021;-68
2024/03/05 10:29:35;;;;;;;43.30;21.15;;;7.50;99.90;;;;;;5022084;28;20037;-68
2024/03/05 10:32:04;;;;;;;46.78;21.33;;;7.60;99.90;;;;;;5014656;28;20038;-69
2024/03/05 10:34:29;;;;;;;47.30;22.25;;;7.50;99.90;;;;;;5019992;28;20124;-69
2024/03/05 10:37:07;;;;;;;47.00;20.40;;;7.50;99.90;;;;;;5019797;28;20136;-68
2024/03/05 10:39:32;;;;;;;44.45;22.23;;;7.60;99.90;;;;;;5018243;28;20034;-68
2024/03/05 10:41:59;;;;;;;48.28;20.17;;;7.60;99.90;;;;;;5018886;28;20042;-68
2024/03/05 10:44:28;;;;;;;54.50;22.73;;;7.60;99.90;;;;;;5023901;28;20037;-68
2024/03/05 10:46:55;;;;;;;60.55;21.80;;;7.60;99.90;;;;;;5021376;28;20268;-69
2024/03/05 10:49:21;;;;;;;47.20;22.13;;;7.60;99.90;;;;;;5018784;28;20042;-68
2024/03/05 10:51:48;;;;;;;45.10;21.02;;;7.70;99.90;;;;;;5023870;28;20029;-69
2024/03/05 10:54:14;;;;;;;47.40;21.00;;;7.70;99.90;;;;;;5018261;28;20049;-68
2024/03/05 10:56:39;;;;;;;45.58;20.52;;;7.70;99.90;;;;;;5020149;28;20461;-68
2024/03/05 11:01:42;;;;;;;43.85;20.08;;;7.70;99.90;;;;;;5017395;28;20038;-69
2024/03/05 11:04:30;;;;;;;47.17;20.40;;;7.70;99.90;;;;;;5017396;28;20034;-69
2024/03/05 11:06:57;;;;;;;48.30;20.02;;;7.70;99.90;;;;;;5018378;28;20580;-68
2024/03/05 11:09:24;;;;;;;47.75;20.23;;;7.70;99.90;;;;;;5021317;28;20034;-68
2024/03/05 11:11:58;;;;;;;40.50;17.70;;;7.70;99.90;;;;;;5018439;28;20538;-69
2024/03/05 11:14:25;;;;;;;40.55;19.20;;;7.70;99.90;;;;;;5022859;28;20125;-68
2024/03/05 11:17:04;;;;;;;45.58;20.90;;;7.70;99.90;;;;;;5021952;28;20037;-68
2024/03/05 11:19:31;;;;;;;46.03;21.05;;;7.70;99.90;;;;;;5019790;28;20760;-68
2024/03/05 11:21:58;;;;;;;40.30;18.85;;;7.70;99.90;;;;;;5014435;28;20645;-68
2024/03/05 11:24:24;;;;;;;46.77;20.13;;;7.70;99.90;;;;;;5023759;28;20824;-68
2024/03/05 11:27:01;;;;;;;39.17;20.08;;;7.70;99.90;;;;;;5016912;28;20040;-68
2024/03/05 11:29:30;;;;;;;41.55;19.77;;;7.70;99.90;;;;;;5014551;28;20049;-68
2024/03/05 11:31:58;;;;;;;42.55;19.88;;;7.70;99.90;;;;;;5017319;28;20057;-68
2024/03/05 11:34:27;;;;;;;46.30;20.17;;;7.70;99.90;;;;;;5011798;28;20037;-69
2024/03/05 11:37:09;;;;;;;41.33;19.65;;;7.70;99.90;;;;;;5012092;28;20113;-69
2024/03/05 11:39:44;;;;;;;40.97;18.90;;;7.70;99.90;;;;;;5016281;28;20030;-69
2024/03/05 11:42:19;;;;;;;47.00;19.00;;;7.70;99.90;;;;;;5022931;28;20029;-69
2024/03/05 11:44:49;;;;;;;42.60;19.90;;;7.70;99.90;;;;;;5015031;28;20041;-69
2024/03/05 11:47:24;;;;;;;47.10;20.67;;;7.70;99.90;;;;;;5019872;28;20034;-69
2024/03/05 11:49:50;;;;;;;41.03;18.95;;;7.70;99.90;;;;;;5017744;28;20103;-66
2024/03/05 11:52:18;;;;;;;42.00;19.52;;;7.70;99.90;;;;;;5019484;28;20037;-67
2024/03/05 11:54:44;;;;;;;43.90;18.83;;;7.70;99.90;;;;;;5020582;28;20045;-66
2024/03/05 11:57:11;;;;;;;36.88;18.85;;;7.70;99.90;;;;;;5023855;28;20076;-66
2024/03/05 11:59:39;;;;;;;42.05;22.33;;;7.70;99.90;;;;;;5018088;28;20402;-69
2024/03/05 12:02:09;;;;;;;41.90;19.08;;;7.60;99.90;;;;;;5023391;28;20541;-67
2024/03/05 12:04:36;;;;;;;45.08;19.15;;;7.70;99.90;;;;;;5020593;28;20561;-66
2024/03/05 12:07:07;;;;;;;32.13;15.30;;;7.70;99.90;;;;;;5009584;28;20034;-66
2024/03/05 12:09:37;;;;;;;42.20;20.40;;;7.60;99.90;;;;;;5011292;28;20325;-67
2024/03/05 12:12:09;;;;;;;34.28;17.45;;;7.50;99.90;;;;;;5019890;28;20524;-68
2024/03/05 12:14:37;;;;;;;36.67;18.05;;;7.50;99.90;;;;;;5016933;28;20040;-68
2024/03/05 12:17:03;;;;;;;;;;;7.50;99.90;;;;;;5019965;28;20275;-68
2024/03/05 12:19:33;;;;;;;53.53;23.02;;;7.50;99.90;;;;;;5020884;28;20419;-68
2024/03/05 12:22:00;;;;;;;32.60;16.10;;;7.60;99.90;;;;;;5019151;28;20520;-68
2024/03/05 12:24:31;;;;;;;40.55;18.15;;;7.60;99.90;;;;;;5021395;28;20258;-68
2024/03/05 12:26:57;;;;;;;;;;;7.50;99.90;;;;;;5019765;28;20046;-68
2024/03/05 12:29:32;;;;;;;45.63;21.75;;;7.50;99.90;;;;;;5019971;28;20382;-68
2024/03/05 12:32:01;;;;;;;45.40;19.15;;;7.50;99.90;;;;;;5019677;28;20030;-68
2024/03/05 12:34:27;;;;;;;47.05;19.38;;;7.50;99.90;;;;;;5009930;28;20116;-68
2024/03/05 12:36:53;;;;;;;55.67;19.15;;;7.60;99.90;;;;;;5014734;28;20438;-68
2024/03/05 12:39:18;;;;;;;41.58;19.90;;;7.60;99.90;;;;;;5019054;28;20095;-68
2024/03/05 12:42:01;;;;;;;38.10;17.80;;;7.70;99.90;;;;;;5021895;28;20073;-68
2024/03/05 12:44:28;;;;;;;41.60;18.60;;;7.70;99.90;;;;;;5023683;28;20042;-68